createdAt,value
2023-05-13T00:01:20.823Z,101785.09
2023-05-13T00:03:47.587Z,101801.25
2023-05-13T00:06:14.367Z,101785.09
2023-05-13T00:08:41.030Z,101810.19
2023-05-13T00:11:07.896Z,101787.66
2023-05-13T00:13:34.695Z,101758.03
2023-05-13T00:16:01.300Z,101777.84
2023-05-13T00:18:27.927Z,101812.78
2023-05-13T00:20:54.671Z,101809.13
2023-05-13T00:23:21.367Z,101811.69
2023-05-13T00:25:48.026Z,101815.25
2023-05-13T00:28:15.125Z,101764.19
2023-05-13T00:30:45.841Z,101797.31
2023-05-13T00:33:12.628Z,101764.03
2023-05-13T00:35:39.827Z,101784.63
2023-05-13T00:38:07.010Z,101760.31
2023-05-13T00:40:38.043Z,101800.59
2023-05-13T00:43:04.778Z,101787.19
2023-05-13T00:45:31.575Z,101791.53
2023-05-13T00:47:59.387Z,101795.00
2023-05-13T00:50:26.151Z,101816.50
2023-05-13T00:52:53.754Z,101811.09
2023-05-13T00:55:21.430Z,101819.06
2023-05-13T00:57:48.103Z,101813.78
2023-05-13T01:00:15.279Z,101811.91
2023-05-13T01:03:01.415Z,101815.34
2023-05-13T01:05:48.618Z,101819.72
2023-05-13T01:08:37.824Z,101811.69
2023-05-13T01:11:10.540Z,101801.66
2023-05-13T01:13:42.982Z,101801.69
2023-05-13T01:16:16.360Z,101701.16
2023-05-13T01:19:35.360Z,101818.63
2023-05-13T01:22:01.942Z,101812.31
2023-05-13T01:24:28.705Z,101719.81
2023-05-13T01:26:56.429Z,101794.31
2023-05-13T01:29:23.147Z,101802.38
2023-05-13T01:31:51.075Z,101781.69
2023-05-13T01:34:20.649Z,101764.56
2023-05-13T01:36:48.659Z,101795.91
2023-05-13T01:39:19.773Z,101808.38
2023-05-13T01:41:48.510Z,101785.22
2023-05-13T01:44:15.799Z,101812.06
2023-05-13T01:46:46.930Z,101732.13
2023-05-13T01:49:14.168Z,101810.13
2023-05-13T01:51:41.399Z,101677.03
2023-05-13T01:54:07.981Z,101811.00
2023-05-13T01:56:38.893Z,101764.13
2023-05-13T01:59:05.648Z,101810.94
2023-05-13T02:01:32.231Z,101782.34
2023-05-13T02:04:00.095Z,101788.53
2023-05-13T02:06:28.003Z,101800.22
2023-05-13T02:08:55.006Z,101768.56
2023-05-13T02:11:22.461Z,101814.38
2023-05-13T02:13:49.158Z,101802.75
2023-05-13T02:16:19.789Z,101749.66
2023-05-13T02:18:46.557Z,101784.69
2023-05-13T02:21:13.281Z,101773.78
2023-05-13T02:23:40.318Z,101804.16
2023-05-13T02:26:06.947Z,101791.47
2023-05-13T02:28:33.516Z,101812.16
2023-05-13T02:31:00.815Z,101795.13
2023-05-13T02:33:27.560Z,101770.03
2023-05-13T02:35:54.252Z,101767.22
2023-05-13T02:38:20.963Z,101729.38
2023-05-13T02:40:48.220Z,101815.63
2023-05-13T02:43:15.020Z,101798.59
2023-05-13T02:45:49.466Z,101804.84
2023-05-13T02:48:17.095Z,101795.88
2023-05-13T02:50:44.719Z,101795.72
2023-05-13T02:53:11.772Z,101620.47
2023-05-13T02:55:43.472Z,101801.97
2023-05-13T02:58:10.157Z,101787.59
2023-05-13T03:00:36.992Z,101799.28
2023-05-13T03:03:03.742Z,101706.69
2023-05-13T03:05:30.689Z,101799.22
2023-05-13T03:07:58.248Z,101802.81
2023-05-13T03:10:25.974Z,101800.09
2023-05-13T03:12:52.613Z,101799.09
2023-05-13T03:15:19.335Z,101796.41
2023-05-13T03:17:45.933Z,101787.53
2023-05-13T03:20:12.870Z,101789.31
2023-05-13T03:22:40.136Z,101792.84
2023-05-13T03:25:07.742Z,101777.44
2023-05-13T03:27:42.433Z,101779.31
2023-05-13T03:30:10.790Z,101758.56
2023-05-13T03:32:45.414Z,101672.25
2023-05-13T03:35:12.688Z,101792.63
2023-05-13T03:37:39.524Z,101668.59
2023-05-13T03:40:08.135Z,101792.66
2023-05-13T03:42:35.765Z,101689.19
2023-05-13T03:45:04.786Z,101734.88
2023-05-13T03:47:33.315Z,101763.63
2023-05-13T03:50:05.014Z,101804.66
2023-05-13T03:52:38.331Z,101794.78
2023-05-13T03:55:06.205Z,101793.06
2023-05-13T03:57:34.305Z,101824.31
2023-05-13T04:00:01.098Z,101813.53
2023-05-13T04:02:27.754Z,101775.78
2023-05-13T04:04:54.409Z,101789.38
2023-05-13T04:07:21.004Z,101749.66
2023-05-13T04:09:47.598Z,101804.59
2023-05-13T04:12:15.685Z,101759.66
2023-05-13T04:14:42.206Z,101813.59
2023-05-13T04:17:08.794Z,101809.09
2023-05-13T04:19:35.375Z,101762.38
2023-05-13T04:22:01.944Z,101763.25
2023-05-13T04:24:28.554Z,101749.72
2023-05-13T04:26:55.218Z,101826.06
2023-05-13T04:29:21.797Z,101719.25
2023-05-13T04:31:48.439Z,101810.19
2023-05-13T04:34:15.300Z,101768.63
2023-05-13T04:36:42.582Z,101811.75
2023-05-13T04:39:10.902Z,101793.75
2023-05-13T04:41:37.512Z,101799.28
2023-05-13T04:44:06.192Z,101806.53
2023-05-13T04:46:33.384Z,101822.56
2023-05-13T04:49:00.018Z,101821.75
2023-05-13T04:51:27.011Z,101831.63
2023-05-13T04:53:54.022Z,101804.47
2023-05-13T04:56:21.765Z,101830.59
2023-05-13T04:58:48.724Z,101801.00
2023-05-13T05:01:16.033Z,101808.06
2023-05-13T05:03:42.724Z,101838.84
2023-05-13T05:06:09.675Z,101781.41
2023-05-13T05:08:36.270Z,101838.16
2023-05-13T05:11:02.908Z,101800.34
2023-05-13T05:13:32.126Z,101747.19
2023-05-13T05:15:59.155Z,101829.06
2023-05-13T05:18:25.843Z,101844.38
2023-05-13T05:20:52.493Z,101844.44
2023-05-13T05:23:21.291Z,101854.31
2023-05-13T05:25:53.240Z,101850.84
2023-05-13T05:28:27.616Z,101833.78
2023-05-13T05:30:54.223Z,101853.94
2023-05-13T05:33:25.237Z,101859.38
2023-05-13T05:35:51.813Z,101784.84
2023-05-13T05:38:20.505Z,101865.91
2023-05-13T05:40:47.402Z,101812.25
2023-05-13T05:43:14.640Z,101760.38
2023-05-13T05:45:41.275Z,101861.19
2023-05-13T05:48:11.299Z,101848.38
2023-05-13T05:50:38.125Z,101858.88
2023-05-13T05:53:07.136Z,101854.16
2023-05-13T05:55:36.354Z,101863.34
2023-05-13T05:58:05.472Z,101869.94
2023-05-13T06:00:33.935Z,101865.00
2023-05-13T06:03:00.643Z,101873.28
2023-05-13T06:05:27.537Z,101839.28
2023-05-13T06:07:54.097Z,101865.53
2023-05-13T06:10:21.082Z,101876.22
2023-05-13T06:12:47.953Z,101861.09
2023-05-13T06:15:14.598Z,101875.53
2023-05-13T06:17:41.941Z,101880.91
2023-05-13T06:20:09.028Z,101881.69
2023-05-13T06:22:35.789Z,101876.41
2023-05-13T06:25:02.425Z,101870.19
2023-05-13T06:27:29.031Z,101873.75
2023-05-13T06:29:55.602Z,101867.50
2023-05-13T06:32:22.161Z,101850.44
2023-05-13T06:34:49.492Z,101876.41
2023-05-13T06:37:16.162Z,101863.75
2023-05-13T06:39:43.284Z,101873.50
2023-05-13T06:42:10.703Z,101876.09
2023-05-13T06:44:44.038Z,101872.38
2023-05-13T06:47:14.687Z,101872.25
2023-05-13T06:49:42.319Z,101848.22
2023-05-13T06:52:12.129Z,101855.47
2023-05-13T06:54:38.740Z,101861.81
2023-05-13T06:57:05.693Z,101898.41
2023-05-13T06:59:32.267Z,101875.59
2023-05-13T07:01:58.854Z,101817.16
2023-05-13T07:04:25.685Z,101747.06
2023-05-13T07:06:52.308Z,101873.66
2023-05-13T07:09:18.849Z,101889.34
2023-05-13T07:11:45.341Z,101890.47
2023-05-13T07:14:11.877Z,101878.78
2023-05-13T07:16:38.506Z,101887.72
2023-05-13T07:19:05.216Z,101823.59
2023-05-13T07:21:31.798Z,101889.16
2023-05-13T07:23:58.366Z,101897.06
2023-05-13T07:26:24.910Z,101883.09
2023-05-13T07:28:51.448Z,101897.50
2023-05-13T07:31:18.106Z,101885.66
2023-05-13T07:33:44.718Z,101896.97
2023-05-13T07:36:11.211Z,101894.28
2023-05-13T07:38:37.778Z,101834.44
2023-05-13T07:41:04.468Z,101879.03
2023-05-13T07:43:32.029Z,101868.06
2023-05-13T07:45:58.784Z,101893.00
2023-05-13T07:48:25.698Z,101902.81
2023-05-13T07:50:52.443Z,101827.69
2023-05-13T07:53:19.829Z,101879.56
2023-05-13T07:55:46.663Z,101899.88
2023-05-13T07:58:13.268Z,101890.78
2023-05-13T08:00:39.859Z,101847.03
2023-05-13T08:03:06.697Z,101886.91
2023-05-13T08:05:33.406Z,101870.66
2023-05-13T08:08:00.044Z,101888.00
2023-05-13T08:10:26.704Z,101881.44
2023-05-13T08:12:57.557Z,101886.41
2023-05-13T08:15:24.979Z,101896.97
2023-05-13T08:17:53.774Z,101900.53
2023-05-13T08:20:23.047Z,101850.13
2023-05-13T08:22:49.721Z,101887.94
2023-05-13T08:25:16.443Z,101869.56
2023-05-13T08:27:44.203Z,101887.50
2023-05-13T08:30:11.259Z,101889.88
2023-05-13T08:32:37.852Z,101897.00
2023-05-13T08:35:04.757Z,101886.47
2023-05-13T08:37:31.584Z,101867.22
2023-05-13T08:40:00.524Z,101865.91
2023-05-13T08:42:37.786Z,101872.19
2023-05-13T08:45:05.687Z,101866.88
2023-05-13T08:47:51.077Z,101873.91
2023-05-13T08:50:19.234Z,101813.41
2023-05-13T08:52:46.045Z,101865.97
2023-05-13T08:55:13.084Z,101833.19
2023-05-13T08:57:39.754Z,101874.00
2023-05-13T09:00:08.138Z,101889.91
2023-05-13T09:02:34.870Z,101864.22
2023-05-13T09:05:07.480Z,101873.63
2023-05-13T09:07:36.842Z,101836.78
2023-05-13T09:10:07.740Z,101883.09
2023-05-13T09:12:51.711Z,101875.75
2023-05-13T09:15:21.529Z,101863.66
2023-05-13T09:17:51.425Z,101888.94
2023-05-13T09:20:20.073Z,101876.97
2023-05-13T09:22:55.412Z,101861.81
2023-05-13T09:25:25.208Z,101858.00
2023-05-13T09:27:57.485Z,101826.97
2023-05-13T09:30:28.259Z,101838.47
2023-05-13T09:33:19.611Z,101869.81
2023-05-13T09:35:52.797Z,101868.22
2023-05-13T09:38:25.207Z,101852.22
2023-05-13T09:40:55.762Z,101799.00
2023-05-13T09:43:24.216Z,101798.75
2023-05-13T09:45:55.421Z,101849.34
2023-05-13T09:48:25.186Z,101843.72
2023-05-13T09:50:52.498Z,101862.69
2023-05-13T09:53:21.165Z,101846.91
2023-05-13T09:55:49.175Z,101832.75
2023-05-13T09:58:20.106Z,101835.34
2023-05-13T10:00:47.753Z,101840.97
2023-05-13T10:03:15.922Z,101851.44
2023-05-13T10:05:42.802Z,101850.56
2023-05-13T10:08:11.922Z,101830.84
2023-05-13T10:10:39.785Z,101850.94
2023-05-13T10:13:09.299Z,101827.97
2023-05-13T10:15:36.120Z,101840.84
2023-05-13T10:18:05.979Z,101838.34
2023-05-13T10:20:34.008Z,101845.34
2023-05-13T10:23:00.643Z,101839.06
2023-05-13T10:25:27.892Z,101843.75
2023-05-13T10:27:57.740Z,101769.06
2023-05-13T10:30:26.501Z,101829.34
2023-05-13T10:32:54.546Z,101840.78
2023-05-13T10:35:25.332Z,101779.34
2023-05-13T10:38:17.543Z,101824.16
2023-05-13T10:41:08.047Z,101837.47
2023-05-13T10:43:35.221Z,101826.38
2023-05-13T10:46:06.514Z,101833.13
2023-05-13T10:48:39.522Z,101815.41
2023-05-13T10:51:09.128Z,101829.31
2023-05-13T10:53:49.186Z,101836.47
2023-05-13T10:56:19.260Z,101825.81
2023-05-13T10:58:58.547Z,101831.00
2023-05-13T11:01:29.501Z,101783.47
2023-05-13T11:03:59.131Z,101744.94
2023-05-13T11:06:40.818Z,101796.41
2023-05-13T11:09:14.645Z,101769.97
2023-05-13T11:11:41.906Z,101814.50
2023-05-13T11:14:14.058Z,101806.50
2023-05-13T11:16:48.880Z,101796.69
2023-05-13T11:19:25.822Z,101813.16
2023-05-13T11:21:54.229Z,101741.81
2023-05-13T11:24:22.017Z,101794.03
2023-05-13T11:26:49.830Z,101808.34
2023-05-13T11:29:37.327Z,101791.28
2023-05-13T11:32:05.782Z,101793.06
2023-05-13T11:34:33.979Z,101790.28
2023-05-13T11:37:03.564Z,101787.63
2023-05-13T11:39:30.826Z,101791.50
2023-05-13T11:41:57.586Z,101785.03
2023-05-13T11:44:25.644Z,101791.03
2023-05-13T11:46:56.227Z,101792.75
2023-05-13T11:49:42.072Z,101797.91
2023-05-13T11:52:14.482Z,101717.16
2023-05-13T11:54:46.303Z,101782.16
2023-05-13T11:57:20.203Z,101765.25
2023-05-13T11:59:53.939Z,101740.00
2023-05-13T12:02:22.206Z,101776.97
2023-05-13T12:04:49.108Z,101727.69
2023-05-13T12:07:20.072Z,101790.28
2023-05-13T12:09:46.605Z,101772.59
2023-05-13T12:12:14.574Z,101774.00
2023-05-13T12:14:42.250Z,101785.22
2023-05-13T12:17:09.030Z,101773.84
2023-05-13T12:19:37.291Z,101771.88
2023-05-13T12:22:05.622Z,101699.97
2023-05-13T12:24:35.411Z,101768.25
2023-05-13T12:27:08.631Z,101761.97
2023-05-13T12:29:42.911Z,101766.34
2023-05-13T12:32:11.270Z,101739.81
2023-05-13T12:34:38.970Z,101702.63
2023-05-13T12:37:12.827Z,101773.59
2023-05-13T12:39:41.478Z,101768.97
2023-05-13T12:42:18.542Z,101770.19
2023-05-13T12:44:45.850Z,101757.09
2023-05-13T12:47:15.210Z,101710.53
2023-05-13T12:49:52.394Z,101753.72
2023-05-13T12:52:19.487Z,101753.94
2023-05-13T12:54:46.256Z,101760.22
2023-05-13T12:57:12.871Z,101760.22
2023-05-13T12:59:39.520Z,101758.53
2023-05-13T13:02:06.816Z,101762.69
2023-05-13T13:04:33.364Z,101752.19
2023-05-13T13:06:59.900Z,101762.28
2023-05-13T13:09:26.418Z,101758.47
2023-05-13T13:11:53.017Z,101760.03
2023-05-13T13:14:19.611Z,101753.34
2023-05-13T13:16:46.784Z,101758.56
2023-05-13T13:19:13.440Z,101767.00
2023-05-13T13:21:40.059Z,101693.78
2023-05-13T13:24:06.820Z,101760.31
2023-05-13T13:26:33.424Z,101763.50
2023-05-13T13:29:00.000Z,101756.09
2023-05-13T13:31:26.622Z,101725.44
2023-05-13T13:33:53.948Z,101748.31
2023-05-13T13:36:20.647Z,101745.06
2023-05-13T13:38:47.240Z,101731.44
2023-05-13T13:41:13.911Z,101748.31
2023-05-13T13:43:40.441Z,101733.09
2023-05-13T13:46:07.197Z,101682.59
2023-05-13T13:48:33.839Z,101741.03
2023-05-13T13:51:00.553Z,101661.44
2023-05-13T13:53:27.103Z,101733.94
2023-05-13T13:55:53.686Z,101735.84
2023-05-13T13:58:20.379Z,101731.16
2023-05-13T14:00:46.916Z,101719.13
2023-05-13T14:03:13.654Z,101725.38
2023-05-13T14:05:40.279Z,101709.72
2023-05-13T14:08:07.006Z,101698.69
2023-05-13T14:10:33.556Z,101713.31
2023-05-13T14:13:00.079Z,101723.16
2023-05-13T14:15:28.850Z,101721.06
2023-05-13T14:17:55.647Z,101704.41
2023-05-13T14:20:22.863Z,101688.75
2023-05-13T14:22:49.623Z,101703.00
2023-05-13T14:25:16.552Z,101692.47
2023-05-13T14:27:43.122Z,101705.22
2023-05-13T14:30:09.867Z,101692.94
2023-05-13T14:32:36.452Z,101665.59
2023-05-13T14:35:03.030Z,101697.88
2023-05-13T14:37:29.604Z,101704.69
2023-05-13T14:39:56.109Z,101701.28
2023-05-13T14:42:22.739Z,101699.75
2023-05-13T14:44:49.355Z,101632.94
2023-05-13T14:47:15.908Z,101670.38
2023-05-13T14:49:42.556Z,101679.53
2023-05-13T14:52:09.103Z,101686.13
2023-05-13T14:54:36.871Z,101695.06
2023-05-13T14:57:04.438Z,101695.69
2023-05-13T14:59:32.220Z,101688.13
2023-05-13T15:01:58.839Z,101683.44
2023-05-13T15:04:25.432Z,101684.38
2023-05-13T15:06:52.155Z,101663.91
2023-05-13T15:09:19.654Z,101685.00
2023-05-13T15:11:46.248Z,101679.78
2023-05-13T15:14:12.888Z,101669.31
2023-05-13T15:16:39.609Z,101669.63
2023-05-13T15:19:07.294Z,101662.00
2023-05-13T15:21:34.007Z,101620.59
2023-05-13T15:24:00.575Z,101649.50
2023-05-13T15:26:27.199Z,101661.84
2023-05-13T15:28:53.964Z,101675.53
2023-05-13T15:31:20.901Z,101638.69
2023-05-13T15:33:47.465Z,101670.44
2023-05-13T15:36:14.006Z,101661.16
2023-05-13T15:38:40.719Z,101646.59
2023-05-13T15:41:07.471Z,101662.38
2023-05-13T15:43:34.415Z,101647.94
2023-05-13T15:46:01.436Z,101654.13
2023-05-13T15:48:29.059Z,101656.47
2023-05-13T15:50:55.590Z,101626.63
2023-05-13T15:53:22.183Z,101647.78
2023-05-13T15:55:48.849Z,101651.03
2023-05-13T15:58:15.422Z,101634.91
2023-05-13T16:00:41.912Z,101634.13
2023-05-13T16:03:08.509Z,101627.00
2023-05-13T16:05:36.301Z,101641.78
2023-05-13T16:08:02.950Z,101643.28
2023-05-13T16:10:29.604Z,101635.44
2023-05-13T16:12:56.107Z,101638.06
2023-05-13T16:15:22.703Z,101635.22
2023-05-13T16:17:49.284Z,101635.19
2023-05-13T16:20:15.842Z,101640.59
2023-05-13T16:22:43.351Z,101644.66
2023-05-13T16:25:11.481Z,101635.44
2023-05-13T16:27:39.239Z,101635.66
2023-05-13T16:30:07.455Z,101632.19
2023-05-13T16:32:34.918Z,101652.72
2023-05-13T16:35:02.754Z,101648.72
2023-05-13T16:37:29.809Z,101583.56
2023-05-13T16:39:56.386Z,101637.34
2023-05-13T16:42:23.190Z,101647.53
2023-05-13T16:44:49.820Z,101649.00
2023-05-13T16:47:16.503Z,101642.03
2023-05-13T16:49:43.189Z,101643.06
2023-05-13T16:52:09.801Z,101609.91
2023-05-13T16:54:36.383Z,101635.63
2023-05-13T16:57:02.952Z,101625.50
2023-05-13T16:59:29.582Z,101633.22
2023-05-13T17:01:56.284Z,101628.00
2023-05-13T17:04:22.947Z,101627.88
2023-05-13T17:06:49.557Z,101641.97
2023-05-13T17:09:16.210Z,101648.13
2023-05-13T17:11:43.488Z,101586.97
2023-05-13T17:14:10.333Z,101640.72
2023-05-13T17:16:37.110Z,101648.69
2023-05-13T17:19:03.786Z,101643.91
2023-05-13T17:21:30.456Z,101558.81
2023-05-13T17:23:56.967Z,101645.78
2023-05-13T17:26:23.495Z,101623.00
2023-05-13T17:28:50.074Z,101650.09
2023-05-13T17:31:16.822Z,101654.25
2023-05-13T17:33:43.680Z,101575.69
2023-05-13T17:36:10.890Z,101573.84
2023-05-13T17:38:37.982Z,101580.31
2023-05-13T17:41:05.078Z,101645.66
2023-05-13T17:43:31.806Z,101631.59
2023-05-13T17:45:58.443Z,101629.19
2023-05-13T17:48:26.586Z,101656.25
2023-05-13T17:50:53.303Z,101621.09
2023-05-13T17:53:20.682Z,101592.78
2023-05-13T17:55:50.575Z,101645.06
2023-05-13T17:58:17.129Z,101655.28
2023-05-13T18:00:43.756Z,101657.41
2023-05-13T18:03:10.492Z,101650.41
2023-05-13T18:05:37.453Z,101666.53
2023-05-13T18:08:04.162Z,101648.84
2023-05-13T18:10:30.996Z,101650.03
2023-05-13T18:12:57.572Z,101654.56
2023-05-13T18:15:24.111Z,101662.78
2023-05-13T18:17:50.803Z,101647.50
2023-05-13T18:20:18.160Z,101646.41
2023-05-13T18:22:44.739Z,101642.56
2023-05-13T18:25:11.582Z,101571.41
2023-05-13T18:27:38.245Z,101636.00
2023-05-13T18:30:06.148Z,101654.41
2023-05-13T18:32:32.823Z,101670.13
2023-05-13T18:34:59.391Z,101599.06
2023-05-13T18:37:25.965Z,101665.38
2023-05-13T18:39:52.629Z,101668.75
2023-05-13T18:42:19.191Z,101674.84
2023-05-13T18:44:45.857Z,101605.00
2023-05-13T18:47:12.439Z,101664.19
2023-05-13T18:49:39.157Z,101677.97
2023-05-13T18:52:06.237Z,101601.63
2023-05-13T18:54:32.855Z,101677.75
2023-05-13T18:56:59.478Z,101678.97
2023-05-13T18:59:26.074Z,101681.88
2023-05-13T19:01:52.794Z,101684.84
2023-05-13T19:04:19.739Z,101606.44
2023-05-13T19:06:46.426Z,101688.72
2023-05-13T19:09:13.008Z,101677.22
2023-05-13T19:11:39.597Z,101654.19
2023-05-13T19:14:06.641Z,101611.47
2023-05-13T19:16:33.317Z,101598.19
2023-05-13T19:18:59.909Z,101667.97
2023-05-13T19:21:26.505Z,101711.00
2023-05-13T19:23:53.082Z,101699.50
2023-05-13T19:26:19.747Z,101692.53
2023-05-13T19:28:46.764Z,101722.16
2023-05-13T19:31:13.352Z,101719.53
2023-05-13T19:33:40.310Z,101728.53
2023-05-13T19:36:07.227Z,101727.69
2023-05-13T19:38:34.908Z,101725.94
2023-05-13T19:41:01.743Z,101731.34
2023-05-13T19:43:28.285Z,101708.06
2023-05-13T19:45:56.429Z,101740.31
2023-05-13T19:48:23.107Z,101685.69
2023-05-13T19:50:53.291Z,101757.34
2023-05-13T19:53:21.633Z,101673.19
2023-05-13T19:55:48.271Z,101735.81
2023-05-13T19:58:15.632Z,101744.75
2023-05-13T20:00:43.965Z,101708.06
2023-05-13T20:03:11.066Z,101675.84
2023-05-13T20:05:40.067Z,101741.22
2023-05-13T20:08:06.920Z,101743.00
2023-05-13T20:10:35.237Z,101724.22
2023-05-13T20:13:03.954Z,101740.28
2023-05-13T20:15:31.726Z,101745.63
2023-05-13T20:17:58.478Z,101742.03
2023-05-13T20:20:25.303Z,101731.25
2023-05-13T20:22:52.094Z,101716.91
2023-05-13T20:25:18.676Z,101734.81
2023-05-13T20:27:45.362Z,101737.44
2023-05-13T20:30:12.639Z,101730.25
2023-05-13T20:32:39.320Z,101736.50
2023-05-13T20:35:07.504Z,101727.53
2023-05-13T20:37:34.341Z,101736.47
2023-05-13T20:40:00.960Z,101746.31
2023-05-13T20:42:27.537Z,101738.25
2023-05-13T20:44:54.123Z,101745.41
2023-05-13T20:47:20.953Z,101711.44
2023-05-13T20:49:47.515Z,101743.63
2023-05-13T20:52:14.173Z,101744.53
2023-05-13T20:54:40.853Z,101731.13
2023-05-13T20:57:07.497Z,101713.22
2023-05-13T20:59:34.508Z,101698.91
2023-05-13T21:02:01.100Z,101740.03
2023-05-13T21:04:27.908Z,101740.94
2023-05-13T21:06:54.456Z,101661.34
2023-05-13T21:09:20.966Z,101655.09
2023-05-13T21:11:47.534Z,101726.69
2023-05-13T21:14:14.258Z,101712.38
2023-05-13T21:16:40.814Z,101712.41
2023-05-13T21:19:07.600Z,101659.63
2023-05-13T21:21:34.203Z,101690.06
2023-05-13T21:24:00.731Z,101749.13
2023-05-13T21:26:27.339Z,101750.94
2023-05-13T21:28:53.891Z,101719.63
2023-05-13T21:31:20.546Z,101747.38
2023-05-13T21:33:48.771Z,101748.31
2023-05-13T21:36:15.355Z,101751.00
2023-05-13T21:38:41.878Z,101749.25
2023-05-13T21:41:08.481Z,101708.09
2023-05-13T21:43:35.115Z,101748.38
2023-05-13T21:46:03.168Z,101661.53
2023-05-13T21:48:29.748Z,101702.69
2023-05-13T21:50:56.415Z,101750.19
2023-05-13T21:53:23.190Z,101721.50
2023-05-13T21:55:50.250Z,101750.13
2023-05-13T21:58:16.930Z,101667.81
2023-05-13T22:00:43.568Z,101670.50
2023-05-13T22:03:10.230Z,101752.78
2023-05-13T22:05:42.198Z,101747.41
2023-05-13T22:08:08.826Z,101719.66
2023-05-13T22:10:35.378Z,101753.72
2023-05-13T22:13:02.055Z,101747.44
2023-05-13T22:15:28.701Z,101714.25
2023-05-13T22:17:55.425Z,101743.78
2023-05-13T22:20:22.463Z,101747.38
2023-05-13T22:22:49.469Z,101748.25
2023-05-13T22:25:16.221Z,101726.75
2023-05-13T22:27:42.703Z,101741.97
2023-05-13T22:30:09.489Z,101747.34
2023-05-13T22:32:38.233Z,101652.38
2023-05-13T22:35:06.413Z,101681.91
2023-05-13T22:37:32.924Z,101743.75
2023-05-13T22:39:59.465Z,101719.56
2023-05-13T22:42:27.294Z,101724.91
2023-05-13T22:44:53.794Z,101693.53
2023-05-13T22:47:20.414Z,101701.59
2023-05-13T22:49:46.919Z,101691.75
2023-05-13T22:52:13.456Z,101710.59
2023-05-13T22:54:39.927Z,101686.41
2023-05-13T22:57:06.521Z,101708.81
2023-05-13T22:59:33.041Z,101727.59
2023-05-13T23:01:59.802Z,101723.13
2023-05-13T23:04:26.581Z,101722.25
2023-05-13T23:06:53.156Z,101715.97
2023-05-13T23:09:19.786Z,101707.84
2023-05-13T23:11:46.365Z,101713.25
2023-05-13T23:14:13.044Z,101710.56
2023-05-13T23:16:39.638Z,101686.34
2023-05-13T23:19:06.256Z,101701.56
2023-05-13T23:21:32.872Z,101710.47
2023-05-13T23:23:59.519Z,101697.94
2023-05-13T23:26:26.063Z,101683.56
2023-05-13T23:28:52.694Z,101702.34
2023-05-13T23:31:19.277Z,101680.81
2023-05-13T23:33:45.910Z,101672.72
2023-05-13T23:36:12.551Z,101704.97
2023-05-13T23:38:39.642Z,101616.25
2023-05-13T23:41:06.228Z,101644.88
2023-05-13T23:43:32.754Z,101704.81
2023-05-13T23:45:59.419Z,101700.31
2023-05-13T23:48:29.068Z,101683.19
2023-05-13T23:50:55.641Z,101676.00
2023-05-13T23:53:22.184Z,101683.16
2023-05-13T23:55:48.927Z,101660.69
2023-05-13T23:58:15.730Z,101682.16
